Terminal Aerodrome Forecast
Issued by NWS

Current Version | Previous Version | Text Only | Print | Product List | Glossary On
Versions: 1 2 3 4 5 6 7 8 9 10 11 12
000
FTUS46 KPDT 051720
TAFBDN
TAF
KBDN 051720Z 0518/0618 VRB04KT P6SM SCT035
     FM052000 35013G22KT P6SM SCT045 SCT200
     FM060400 VRB04KT P6SM SCT200
     FM060900 VRB04KT P6SM BKN040 OVC100=

USA.gov is the U.S. government's official web portal to all federal, state and local government web resources and services.